sensor_id;sensor_type;location;lat;lon;timestamp;temperature;humidity
65207;SHT31;58477;48.072;11.970;2024-03-02T00:00:54;5.10;99.99
65207;SHT31;58477;48.072;11.970;2024-03-02T00:03:20;5.32;99.99
65207;SHT31;58477;48.072;11.970;2024-03-02T00:05:50;5.39;99.99
65207;SHT31;58477;48.072;11.970;2024-03-02T00:08:22;5.30;99.99
65207;SHT31;58477;48.072;11.970;2024-03-02T00:10:48;5.08;99.99
65207;SHT31;58477;48.072;11.970;2024-03-02T00:13:14;4.94;99.99
65207;SHT31;58477;48.072;11.970;2024-03-02T00:15:52;4.80;99.99
65207;SHT31;58477;48.072;11.970;2024-03-02T00:18:25;4.80;99.99
65207;SHT31;58477;48.072;11.970;2024-03-02T00:20:55;4.73;99.99
65207;SHT31;58477;48.072;11.970;2024-03-02T00:23:22;4.70;99.99
65207;SHT31;58477;48.072;11.970;2024-03-02T00:25:52;4.76;99.99
65207;SHT31;58477;48.072;11.970;2024-03-02T00:28:25;4.70;99.99
65207;SHT31;58477;48.072;11.970;2024-03-02T00:31:08;4.69;99.99
65207;SHT31;58477;48.072;11.970;2024-03-02T00:33:44;4.59;99.99
65207;SHT31;58477;48.072;11.970;2024-03-02T00:36:32;4.56;99.99
65207;SHT31;58477;48.072;11.970;2024-03-02T00:38:57;4.57;99.99
65207;SHT31;58477;48.072;11.970;2024-03-02T00:41:32;4.67;99.99
65207;SHT31;58477;48.072;11.970;2024-03-02T00:44:04;4.64;99.99
65207;SHT31;58477;48.072;11.970;2024-03-02T00:46:38;4.67;99.99
65207;SHT31;58477;48.072;11.970;2024-03-02T00:51:36;4.50;99.99
65207;SHT31;58477;48.072;11.970;2024-03-02T00:54:04;4.46;99.99
65207;SHT31;58477;48.072;11.970;2024-03-02T00:56:30;4.53;99.99
65207;SHT31;58477;48.072;11.970;2024-03-02T00:58:56;4.54;99.99
65207;SHT31;58477;48.072;11.970;2024-03-02T01:01:22;4.63;99.99
65207;SHT31;58477;48.072;11.970;2024-03-02T01:03:48;4.53;99.99
65207;SHT31;58477;48.072;11.970;2024-03-02T01:06:15;4.43;99.99
65207;SHT31;58477;48.072;11.970;2024-03-02T01:08:41;4.42;99.99
65207;SHT31;58477;48.072;11.970;2024-03-02T01:11:06;4.45;99.99
65207;SHT31;58477;48.072;11.970;2024-03-02T01:13:32;4.49;99.99
65207;SHT31;58477;48.072;11.970;2024-03-02T01:15:57;4.52;99.99
65207;SHT31;58477;48.072;11.970;2024-03-02T01:18:23;4.54;99.99
65207;SHT31;58477;48.072;11.970;2024-03-02T01:20:49;4.56;99.99
65207;SHT31;58477;48.072;11.970;2024-03-02T01:23:18;4.54;99.99
65207;SHT31;58477;48.072;11.970;2024-03-02T01:25:45;4.53;99.99
65207;SHT31;58477;48.072;11.970;2024-03-02T01:28:10;4.54;99.99
65207;SHT31;58477;48.072;11.970;2024-03-02T01:30:36;4.56;99.99
65207;SHT31;58477;48.072;11.970;2024-03-02T01:33:01;4.67;99.99
65207;SHT31;58477;48.072;11.970;2024-03-02T01:35:27;4.80;99.99
65207;SHT31;58477;48.072;11.970;2024-03-02T01:37:53;4.85;99.99
65207;SHT31;58477;48.072;11.970;2024-03-02T01:40:19;4.79;99.99
65207;SHT31;58477;48.072;11.970;2024-03-02T01:42:44;4.80;99.99
65207;SHT31;58477;48.072;11.970;2024-03-02T01:45:10;4.77;99.99
65207;SHT31;58477;48.072;11.970;2024-03-02T01:47:35;5.00;99.99
65207;SHT31;58477;48.072;11.970;2024-03-02T01:50:01;5.10;99.99
65207;SHT31;58477;48.072;11.970;2024-03-02T01:52:27;5.15;99.99
65207;SHT31;58477;48.072;11.970;2024-03-02T01:54:52;5.08;99.99
65207;SHT31;58477;48.072;11.970;2024-03-02T01:57:18;5.11;99.99
65207;SHT31;58477;48.072;11.970;2024-03-02T01:59:44;5.11;99.99
65207;SHT31;58477;48.072;11.970;2024-03-02T02:02:10;5.10;99.99
65207;SHT31;58477;48.072;11.970;2024-03-02T02:04:35;5.14;99.99
65207;SHT31;58477;48.072;11.970;2024-03-02T02:07:00;5.14;99.99
65207;SHT31;58477;48.072;11.970;2024-03-02T02:09:26;5.12;99.99
65207;SHT31;58477;48.072;11.970;2024-03-02T02:11:52;5.00;99.99
65207;SHT31;58477;48.072;11.970;2024-03-02T02:14:17;4.97;99.99
65207;SHT31;58477;48.072;11.970;2024-03-02T02:16:43;4.88;99.99
65207;SHT31;58477;48.072;11.970;2024-03-02T02:19:08;4.95;99.99
65207;SHT31;58477;48.072;11.970;2024-03-02T02:21:34;4.97;99.99
65207;SHT31;58477;48.072;11.970;2024-03-02T02:24:00;4.87;99.99
65207;SHT31;58477;48.072;11.970;2024-03-02T02:26:26;4.84;99.99
65207;SHT31;58477;48.072;11.970;2024-03-02T02:28:52;4.59;99.99
65207;SHT31;58477;48.072;11.970;2024-03-02T02:31:17;4.33;99.99
65207;SHT31;58477;48.072;11.970;2024-03-02T02:33:42;4.15;99.99
65207;SHT31;58477;48.072;11.970;2024-03-02T02:36:08;4.07;99.99
65207;SHT31;58477;48.072;11.970;2024-03-02T02:38:38;4.16;99.99
65207;SHT31;58477;48.072;11.970;2024-03-02T02:41:04;4.16;99.99
65207;SHT31;58477;48.072;11.970;2024-03-02T02:43:29;4.25;99.99
65207;SHT31;58477;48.072;11.970;2024-03-02T02:45:54;4.33;99.99
65207;SHT31;58477;48.072;11.970;2024-03-02T02:48:20;4.35;99.99
65207;SHT31;58477;48.072;11.970;2024-03-02T02:50:45;4.42;99.99
65207;SHT31;58477;48.072;11.970;2024-03-02T02:53:11;4.36;99.99
65207;SHT31;58477;48.072;11.970;2024-03-02T02:55:36;4.40;99.99
65207;SHT31;58477;48.072;11.970;2024-03-02T02:58:08;4.20;99.99
65207;SHT31;58477;48.072;11.970;2024-03-02T03:00:33;4.23;99.99
65207;SHT31;58477;48.072;11.970;2024-03-02T03:02:59;4.29;99.99
65207;SHT31;58477;48.072;11.970;2024-03-02T03:05:24;4.35;99.99
65207;SHT31;58477;48.072;11.970;2024-03-02T03:07:50;4.36;99.99
65207;SHT31;58477;48.072;11.970;2024-03-02T03:10:16;4.15;99.99
65207;SHT31;58477;48.072;11.970;2024-03-02T03:12:42;4.07;99.99
65207;SHT31;58477;48.072;11.970;2024-03-02T03:15:08;4.05;99.99
65207;SHT31;58477;48.072;11.970;2024-03-02T03:17:34;4.25;99.99
65207;SHT31;58477;48.072;11.970;2024-03-02T03:20:01;4.26;99.99
65207;SHT31;58477;48.072;11.970;2024-03-02T03:22:26;4.22;99.99
65207;SHT31;58477;48.072;11.970;2024-03-02T03:24:52;4.03;99.99
65207;SHT31;58477;48.072;11.970;2024-03-02T03:27:18;3.93;99.99
65207;SHT31;58477;48.072;11.970;2024-03-02T03:29:45;3.86;99.99
65207;SHT31;58477;48.072;11.970;2024-03-02T03:32:10;3.88;99.99
65207;SHT31;58477;48.072;11.970;2024-03-02T03:34:36;3.95;99.99
65207;SHT31;58477;48.072;11.970;2024-03-02T03:37:02;4.01;99.99
65207;SHT31;58477;48.072;11.970;2024-03-02T03:39:27;4.06;99.99
65207;SHT31;58477;48.072;11.970;2024-03-02T03:41:54;4.16;99.99
65207;SHT31;58477;48.072;11.970;2024-03-02T03:44:19;4.23;99.99
65207;SHT31;58477;48.072;11.970;2024-03-02T03:46:45;4.25;99.99
65207;SHT31;58477;48.072;11.970;2024-03-02T03:49:10;4.16;99.99
65207;SHT31;58477;48.072;11.970;2024-03-02T03:51:35;4.29;99.99
65207;SHT31;58477;48.072;11.970;2024-03-02T03:54:01;4.29;99.99
65207;SHT31;58477;48.072;11.970;2024-03-02T03:56:26;4.28;99.99
65207;SHT31;58477;48.072;11.970;2024-03-02T03:58:52;4.25;99.99
65207;SHT31;58477;48.072;11.970;2024-03-02T04:01:17;4.23;99.99
65207;SHT31;58477;48.072;11.970;2024-03-02T04:03:43;4.22;99.99
65207;SHT31;58477;48.072;11.970;2024-03-02T04:06:08;4.22;99.99
65207;SHT31;58477;48.072;11.970;2024-03-02T04:08:34;4.29;99.99
65207;SHT31;58477;48.072;11.970;2024-03-02T04:10:59;4.36;99.99
65207;SHT31;58477;48.072;11.970;2024-03-02T04:13:25;4.40;99.99
65207;SHT31;58477;48.072;11.970;2024-03-02T04:15:50;4.49;99.99
65207;SHT31;58477;48.072;11.970;2024-03-02T04:18:16;4.53;99.99
65207;SHT31;58477;48.072;11.970;2024-03-02T04:20:41;4.33;99.99
65207;SHT31;58477;48.072;11.970;2024-03-02T04:23:07;4.50;99.99
65207;SHT31;58477;48.072;11.970;2024-03-02T04:25:33;4.60;99.99
65207;SHT31;58477;48.072;11.970;2024-03-02T04:27:58;4.60;99.99
65207;SHT31;58477;48.072;11.970;2024-03-02T04:30:24;4.53;99.99
65207;SHT31;58477;48.072;11.970;2024-03-02T04:32:50;4.50;99.99
65207;SHT31;58477;48.072;11.970;2024-03-02T04:35:16;4.46;99.99
65207;SHT31;58477;48.072;11.970;2024-03-02T04:37:41;4.50;99.99
65207;SHT31;58477;48.072;11.970;2024-03-02T04:40:07;4.50;99.99
65207;SHT31;58477;48.072;11.970;2024-03-02T04:42:33;4.35;99.99
65207;SHT31;58477;48.072;11.970;2024-03-02T04:44:59;4.28;99.99
65207;SHT31;58477;48.072;11.970;2024-03-02T04:47:24;4.26;99.99
65207;SHT31;58477;48.072;11.970;2024-03-02T04:49:50;4.25;99.99
65207;SHT31;58477;48.072;11.970;2024-03-02T04:52:16;4.15;99.99
65207;SHT31;58477;48.072;11.970;2024-03-02T04:54:41;4.13;99.99
65207;SHT31;58477;48.072;11.970;2024-03-02T04:57:25;4.26;99.99
65207;SHT31;58477;48.072;11.970;2024-03-02T04:59:50;4.23;99.99
65207;SHT31;58477;48.072;11.970;2024-03-02T05:02:16;4.25;99.99
65207;SHT31;58477;48.072;11.970;2024-03-02T05:04:41;4.28;99.99
65207;SHT31;58477;48.072;11.970;2024-03-02T05:07:08;4.28;99.99
65207;SHT31;58477;48.072;11.970;2024-03-02T05:09:33;4.25;99.99
65207;SHT31;58477;48.072;11.970;2024-03-02T05:11:59;4.35;99.99
65207;SHT31;58477;48.072;11.970;2024-03-02T05:14:43;4.33;99.99
65207;SHT31;58477;48.072;11.970;2024-03-02T05:17:08;4.36;99.99
65207;SHT31;58477;48.072;11.970;2024-03-02T05:19:34;4.49;99.99
65207;SHT31;58477;48.072;11.970;2024-03-02T05:21:59;4.46;99.99
65207;SHT31;58477;48.072;11.970;2024-03-02T05:24:24;4.42;99.99
65207;SHT31;58477;48.072;11.970;2024-03-02T05:26:52;4.28;99.99
65207;SHT31;58477;48.072;11.970;2024-03-02T05:29:18;4.28;99.99
65207;SHT31;58477;48.072;11.970;2024-03-02T05:31:43;4.39;99.99
65207;SHT31;58477;48.072;11.970;2024-03-02T05:34:09;4.52;99.99
65207;SHT31;58477;48.072;11.970;2024-03-02T05:36:35;4.61;99.99
65207;SHT31;58477;48.072;11.970;2024-03-02T05:39:00;4.63;99.99
65207;SHT31;58477;48.072;11.970;2024-03-02T05:41:26;4.71;99.99
65207;SHT31;58477;48.072;11.970;2024-03-02T05:43:52;4.70;99.99
65207;SHT31;58477;48.072;11.970;2024-03-02T05:46:17;4.60;99.99
65207;SHT31;58477;48.072;11.970;2024-03-02T05:48:43;4.61;99.99
65207;SHT31;58477;48.072;11.970;2024-03-02T05:51:08;4.66;99.99
65207;SHT31;58477;48.072;11.970;2024-03-02T05:53:33;4.70;99.99
65207;SHT31;58477;48.072;11.970;2024-03-02T05:55:59;4.69;99.99
65207;SHT31;58477;48.072;11.970;2024-03-02T05:58:24;4.69;99.99
65207;SHT31;58477;48.072;11.970;2024-03-02T06:01:03;4.70;99.99
65207;SHT31;58477;48.072;11.970;2024-03-02T06:03:30;4.80;99.99
65207;SHT31;58477;48.072;11.970;2024-03-02T06:05:55;4.83;99.99
65207;SHT31;58477;48.072;11.970;2024-03-02T06:08:20;4.92;99.99
65207;SHT31;58477;48.072;11.970;2024-03-02T06:10:46;4.94;99.99
65207;SHT31;58477;48.072;11.970;2024-03-02T06:13:11;4.90;99.99
65207;SHT31;58477;48.072;11.970;2024-03-02T06:15:37;4.94;99.99
65207;SHT31;58477;48.072;11.970;2024-03-02T06:18:02;5.02;99.99
65207;SHT31;58477;48.072;11.970;2024-03-02T06:20:28;5.11;99.99
65207;SHT31;58477;48.072;11.970;2024-03-02T06:22:56;5.20;99.99
65207;SHT31;58477;48.072;11.970;2024-03-02T06:25:21;5.31;99.99
65207;SHT31;58477;48.072;11.970;2024-03-02T06:27:46;5.22;99.99
65207;SHT31;58477;48.072;11.970;2024-03-02T06:30:12;5.07;99.99
65207;SHT31;58477;48.072;11.970;2024-03-02T06:32:38;5.07;99.99
65207;SHT31;58477;48.072;11.970;2024-03-02T06:35:03;5.12;99.99
65207;SHT31;58477;48.072;11.970;2024-03-02T06:37:30;5.21;99.99
65207;SHT31;58477;48.072;11.970;2024-03-02T06:39:55;5.28;99.99
65207;SHT31;58477;48.072;11.970;2024-03-02T06:42:20;5.38;99.99
65207;SHT31;58477;48.072;11.970;2024-03-02T06:44:46;5.45;99.99
65207;SHT31;58477;48.072;11.970;2024-03-02T06:47:11;5.59;99.99
65207;SHT31;58477;48.072;11.970;2024-03-02T06:49:37;5.67;99.99
65207;SHT31;58477;48.072;11.970;2024-03-02T06:52:02;5.75;99.99
65207;SHT31;58477;48.072;11.970;2024-03-02T06:54:28;5.77;99.99
65207;SHT31;58477;48.072;11.970;2024-03-02T06:56:53;5.82;99.99
65207;SHT31;58477;48.072;11.970;2024-03-02T06:59:19;5.85;99.99
65207;SHT31;58477;48.072;11.970;2024-03-02T07:01:44;5.86;99.99
65207;SHT31;58477;48.072;11.970;2024-03-02T07:04:09;5.87;99.99
65207;SHT31;58477;48.072;11.970;2024-03-02T07:06:35;5.92;99.99
65207;SHT31;58477;48.072;11.970;2024-03-02T07:09:00;6.00;99.99
65207;SHT31;58477;48.072;11.970;2024-03-02T07:11:26;5.99;99.99
65207;SHT31;58477;48.072;11.970;2024-03-02T07:13:51;5.72;99.99
65207;SHT31;58477;48.072;11.970;2024-03-02T07:16:16;5.51;99.99
65207;SHT31;58477;48.072;11.970;2024-03-02T07:18:56;5.38;99.99
65207;SHT31;58477;48.072;11.970;2024-03-02T07:21:22;5.46;99.99
65207;SHT31;58477;48.072;11.970;2024-03-02T07:23:48;5.52;99.99
65207;SHT31;58477;48.072;11.970;2024-03-02T07:26:14;5.72;99.99
65207;SHT31;58477;48.072;11.970;2024-03-02T07:28:41;5.79;99.99
65207;SHT31;58477;48.072;11.970;2024-03-02T07:31:07;5.77;99.99
65207;SHT31;58477;48.072;11.970;2024-03-02T07:33:32;6.00;99.99
65207;SHT31;58477;48.072;11.970;2024-03-02T07:35:59;6.14;99.99
65207;SHT31;58477;48.072;11.970;2024-03-02T07:38:25;6.19;99.86
65207;SHT31;58477;48.072;11.970;2024-03-02T07:40:50;6.10;99.42
65207;SHT31;58477;48.072;11.970;2024-03-02T07:43:17;6.36;99.04
65207;SHT31;58477;48.072;11.970;2024-03-02T07:45:43;6.40;99.00
65207;SHT31;58477;48.072;11.970;2024-03-02T07:48:09;6.60;98.75
65207;SHT31;58477;48.072;11.970;2024-03-02T07:50:34;6.61;99.00
65207;SHT31;58477;48.072;11.970;2024-03-02T07:53:01;6.74;98.26
65207;SHT31;58477;48.072;11.970;2024-03-02T07:55:26;6.70;98.46
65207;SHT31;58477;48.072;11.970;2024-03-02T07:57:51;6.73;98.40
65207;SHT31;58477;48.072;11.970;2024-03-02T08:00:17;6.78;97.75
65207;SHT31;58477;48.072;11.970;2024-03-02T08:02:43;6.80;97.91
65207;SHT31;58477;48.072;11.970;2024-03-02T08:05:08;6.92;96.98
65207;SHT31;58477;48.072;11.970;2024-03-02T08:07:34;6.99;96.71
65207;SHT31;58477;48.072;11.970;2024-03-02T08:09:59;7.42;96.27
65207;SHT31;58477;48.072;11.970;2024-03-02T08:12:25;7.52;95.83
65207;SHT31;58477;48.072;11.970;2024-03-02T08:14:50;7.12;96.34
65207;SHT31;58477;48.072;11.970;2024-03-02T08:17:16;7.33;96.18
65207;SHT31;58477;48.072;11.970;2024-03-02T08:19:43;7.19;96.90
65207;SHT31;58477;48.072;11.970;2024-03-02T08:22:09;7.30;96.36
65207;SHT31;58477;48.072;11.970;2024-03-02T08:24:35;7.86;95.89
65207;SHT31;58477;48.072;11.970;2024-03-02T08:27:00;8.72;93.82
65207;SHT31;58477;48.072;11.970;2024-03-02T08:29:26;9.90;90.34
65207;SHT31;58477;48.072;11.970;2024-03-02T08:31:52;11.06;88.06
65207;SHT31;58477;48.072;11.970;2024-03-02T08:34:17;11.24;85.54
65207;SHT31;58477;48.072;11.970;2024-03-02T08:36:43;10.77;88.38
65207;SHT31;58477;48.072;11.970;2024-03-02T08:39:08;10.34;87.74
65207;SHT31;58477;48.072;11.970;2024-03-02T08:41:41;11.07;86.29
65207;SHT31;58477;48.072;11.970;2024-03-02T08:44:07;11.47;85.37
65207;SHT31;58477;48.072;11.970;2024-03-02T08:46:32;10.75;85.76
65207;SHT31;58477;48.072;11.970;2024-03-02T08:48:58;9.77;89.72
65207;SHT31;58477;48.072;11.970;2024-03-02T08:51:23;9.58;91.09
65207;SHT31;58477;48.072;11.970;2024-03-02T08:53:48;8.80;91.96
65207;SHT31;58477;48.072;11.970;2024-03-02T08:56:14;8.86;92.35
65207;SHT31;58477;48.072;11.970;2024-03-02T08:58:41;9.37;91.88
65207;SHT31;58477;48.072;11.970;2024-03-02T09:01:06;9.22;91.94
65207;SHT31;58477;48.072;11.970;2024-03-02T09:03:34;8.93;92.21
65207;SHT31;58477;48.072;11.970;2024-03-02T09:06:00;9.06;92.17
65207;SHT31;58477;48.072;11.970;2024-03-02T09:08:26;9.08;92.04
65207;SHT31;58477;48.072;11.970;2024-03-02T09:10:51;9.09;92.37
65207;SHT31;58477;48.072;11.970;2024-03-02T09:13:17;9.19;92.64
65207;SHT31;58477;48.072;11.970;2024-03-02T09:15:42;9.53;91.44
65207;SHT31;58477;48.072;11.970;2024-03-02T09:18:10;9.64;91.09
65207;SHT31;58477;48.072;11.970;2024-03-02T09:20:35;9.43;90.98
65207;SHT31;58477;48.072;11.970;2024-03-02T09:23:00;9.60;91.17
65207;SHT31;58477;48.072;11.970;2024-03-02T09:25:26;10.17;90.10
65207;SHT31;58477;48.072;11.970;2024-03-02T09:27:51;9.70;90.05
65207;SHT31;58477;48.072;11.970;2024-03-02T09:30:17;9.71;90.29
65207;SHT31;58477;48.072;11.970;2024-03-02T09:32:42;10.37;88.82
65207;SHT31;58477;48.072;11.970;2024-03-02T09:35:08;10.45;88.30
65207;SHT31;58477;48.072;11.970;2024-03-02T09:37:34;10.18;89.41
65207;SHT31;58477;48.072;11.970;2024-03-02T09:40:01;10.42;89.74
65207;SHT31;58477;48.072;11.970;2024-03-02T09:42:26;9.86;89.79
65207;SHT31;58477;48.072;11.970;2024-03-02T09:44:52;9.98;89.48
65207;SHT31;58477;48.072;11.970;2024-03-02T09:47:18;9.58;90.29
65207;SHT31;58477;48.072;11.970;2024-03-02T09:49:43;9.44;91.27
65207;SHT31;58477;48.072;11.970;2024-03-02T09:52:10;9.44;91.63
65207;SHT31;58477;48.072;11.970;2024-03-02T09:54:36;9.58;90.49
65207;SHT31;58477;48.072;11.970;2024-03-02T09:57:02;9.95;89.90
65207;SHT31;58477;48.072;11.970;2024-03-02T09:59:28;9.84;89.30
65207;SHT31;58477;48.072;11.970;2024-03-02T10:04:25;10.27;88.75
65207;SHT31;58477;48.072;11.970;2024-03-02T10:06:51;10.09;89.64
65207;SHT31;58477;48.072;11.970;2024-03-02T10:09:29;9.76;90.67
65207;SHT31;58477;48.072;11.970;2024-03-02T10:12:03;9.88;90.61
65207;SHT31;58477;48.072;11.970;2024-03-02T10:14:29;9.70;90.53
65207;SHT31;58477;48.072;11.970;2024-03-02T10:17:02;9.60;90.96
65207;SHT31;58477;48.072;11.970;2024-03-02T10:19:28;9.77;91.71
65207;SHT31;58477;48.072;11.970;2024-03-02T10:21:58;9.93;91.41
65207;SHT31;58477;48.072;11.970;2024-03-02T10:24:23;10.08;90.12
65207;SHT31;58477;48.072;11.970;2024-03-02T10:26:49;9.80;91.19
65207;SHT31;58477;48.072;11.970;2024-03-02T10:29:15;9.66;90.68
65207;SHT31;58477;48.072;11.970;2024-03-02T10:31:42;9.30;91.77
65207;SHT31;58477;48.072;11.970;2024-03-02T10:34:09;9.51;91.78
65207;SHT31;58477;48.072;11.970;2024-03-02T10:36:36;9.51;91.34
65207;SHT31;58477;48.072;11.970;2024-03-02T10:39:05;9.27;92.89
65207;SHT31;58477;48.072;11.970;2024-03-02T10:41:33;9.29;92.31
65207;SHT31;58477;48.072;11.970;2024-03-02T10:43:59;9.47;91.74
65207;SHT31;58477;48.072;11.970;2024-03-02T10:46:29;9.24;92.20
65207;SHT31;58477;48.072;11.970;2024-03-02T10:48:59;9.24;91.98
65207;SHT31;58477;48.072;11.970;2024-03-02T10:51:26;9.60;90.49
65207;SHT31;58477;48.072;11.970;2024-03-02T10:53:53;9.67;90.81
65207;SHT31;58477;48.072;11.970;2024-03-02T10:56:22;9.44;90.08
65207;SHT31;58477;48.072;11.970;2024-03-02T10:58:59;9.69;90.30
65207;SHT31;58477;48.072;11.970;2024-03-02T11:01:27;9.93;90.12
65207;SHT31;58477;48.072;11.970;2024-03-02T11:03:54;9.71;88.57
65207;SHT31;58477;48.072;11.970;2024-03-02T11:06:22;9.93;88.70
65207;SHT31;58477;48.072;11.970;2024-03-02T11:08:49;10.31;88.20
65207;SHT31;58477;48.072;11.970;2024-03-02T11:11:22;10.34;87.28
65207;SHT31;58477;48.072;11.970;2024-03-02T11:13:53;10.80;85.89
65207;SHT31;58477;48.072;11.970;2024-03-02T11:16:45;10.76;85.91
65207;SHT31;58477;48.072;11.970;2024-03-02T11:19:12;10.71;86.61
65207;SHT31;58477;48.072;11.970;2024-03-02T11:21:38;11.24;85.29
65207;SHT31;58477;48.072;11.970;2024-03-02T11:26:46;11.71;83.85
65207;SHT31;58477;48.072;11.970;2024-03-02T11:32:18;11.38;84.68
65207;SHT31;58477;48.072;11.970;2024-03-02T11:34:47;11.73;83.17
65207;SHT31;58477;48.072;11.970;2024-03-02T11:37:15;11.68;82.60
65207;SHT31;58477;48.072;11.970;2024-03-02T11:39:42;11.60;82.47
65207;SHT31;58477;48.072;11.970;2024-03-02T11:42:08;11.66;82.73
65207;SHT31;58477;48.072;11.970;2024-03-02T11:44:36;11.90;82.22
65207;SHT31;58477;48.072;11.970;2024-03-02T11:47:06;12.28;79.93
65207;SHT31;58477;48.072;11.970;2024-03-02T11:52:09;13.48;77.42
65207;SHT31;58477;48.072;11.970;2024-03-02T11:54:41;13.70;76.60
65207;SHT31;58477;48.072;11.970;2024-03-02T11:57:13;12.95;78.49
65207;SHT31;58477;48.072;11.970;2024-03-02T11:59:39;12.75;76.91
65207;SHT31;58477;48.072;11.970;2024-03-02T12:02:06;12.56;79.92
65207;SHT31;58477;48.072;11.970;2024-03-02T12:04:31;12.90;79.58
65207;SHT31;58477;48.072;11.970;2024-03-02T12:06:58;13.10;78.88
65207;SHT31;58477;48.072;11.970;2024-03-02T12:09:29;13.02;78.74
65207;SHT31;58477;48.072;11.970;2024-03-02T12:12:15;12.62;80.49
65207;SHT31;58477;48.072;11.970;2024-03-02T12:14:51;12.86;79.77
65207;SHT31;58477;48.072;11.970;2024-03-02T12:17:17;13.30;79.26
65207;SHT31;58477;48.072;11.970;2024-03-02T12:19:42;12.52;79.52
65207;SHT31;58477;48.072;11.970;2024-03-02T12:22:08;13.04;78.90
65207;SHT31;58477;48.072;11.970;2024-03-02T12:24:33;12.69;78.68
65207;SHT31;58477;48.072;11.970;2024-03-02T12:26:59;12.89;78.82
65207;SHT31;58477;48.072;11.970;2024-03-02T12:29:24;12.80;79.71
65207;SHT31;58477;48.072;11.970;2024-03-02T12:31:51;13.07;80.30
65207;SHT31;58477;48.072;11.970;2024-03-02T12:34:21;12.86;80.69
65207;SHT31;58477;48.072;11.970;2024-03-02T12:36:46;13.13;80.93
65207;SHT31;58477;48.072;11.970;2024-03-02T12:39:18;12.57;78.84
65207;SHT31;58477;48.072;11.970;2024-03-02T12:41:45;12.08;80.55
65207;SHT31;58477;48.072;11.970;2024-03-02T12:44:11;11.91;81.01
65207;SHT31;58477;48.072;11.970;2024-03-02T12:46:36;10.97;82.72
65207;SHT31;58477;48.072;11.970;2024-03-02T12:49:11;10.51;85.35
65207;SHT31;58477;48.072;11.970;2024-03-02T12:51:37;10.68;84.50
65207;SHT31;58477;48.072;11.970;2024-03-02T12:54:08;10.58;84.32
65207;SHT31;58477;48.072;11.970;2024-03-02T12:56:35;10.46;84.35
65207;SHT31;58477;48.072;11.970;2024-03-02T12:59:01;10.56;84.75
65207;SHT31;58477;48.072;11.970;2024-03-02T13:01:27;10.21;84.27
65207;SHT31;58477;48.072;11.970;2024-03-02T13:03:53;10.07;85.60
65207;SHT31;58477;48.072;11.970;2024-03-02T13:06:20;10.11;86.51
65207;SHT31;58477;48.072;11.970;2024-03-02T13:08:46;10.27;86.65
65207;SHT31;58477;48.072;11.970;2024-03-02T13:11:12;10.07;86.26
65207;SHT31;58477;48.072;11.970;2024-03-02T13:13:39;10.05;86.36
65207;SHT31;58477;48.072;11.970;2024-03-02T13:16:12;10.31;86.05
65207;SHT31;58477;48.072;11.970;2024-03-02T13:18:40;10.32;86.34
65207;SHT31;58477;48.072;11.970;2024-03-02T13:21:07;10.04;87.33
65207;SHT31;58477;48.072;11.970;2024-03-02T13:23:32;10.14;87.52
65207;SHT31;58477;48.072;11.970;2024-03-02T13:25:58;10.21;88.58
65207;SHT31;58477;48.072;11.970;2024-03-02T13:28:25;10.52;88.63
65207;SHT31;58477;48.072;11.970;2024-03-02T13:30:50;10.48;88.18
65207;SHT31;58477;48.072;11.970;2024-03-02T13:33:16;10.63;88.58
65207;SHT31;58477;48.072;11.970;2024-03-02T13:35:44;10.79;88.41
65207;SHT31;58477;48.072;11.970;2024-03-02T13:38:10;10.69;88.30
65207;SHT31;58477;48.072;11.970;2024-03-02T13:40:35;10.88;88.43
65207;SHT31;58477;48.072;11.970;2024-03-02T13:43:02;11.06;87.62
65207;SHT31;58477;48.072;11.970;2024-03-02T13:45:28;10.97;87.21
65207;SHT31;58477;48.072;11.970;2024-03-02T13:47:53;11.05;87.53
65207;SHT31;58477;48.072;11.970;2024-03-02T13:50:18;11.19;87.80
65207;SHT31;58477;48.072;11.970;2024-03-02T13:52:45;11.09;87.42
65207;SHT31;58477;48.072;11.970;2024-03-02T13:55:10;11.00;87.91
65207;SHT31;58477;48.072;11.970;2024-03-02T13:57:36;10.99;87.77
65207;SHT31;58477;48.072;11.970;2024-03-02T14:00:01;11.12;87.87
65207;SHT31;58477;48.072;11.970;2024-03-02T14:02:37;11.23;87.20
65207;SHT31;58477;48.072;11.970;2024-03-02T14:05:03;11.15;86.70
65207;SHT31;58477;48.072;11.970;2024-03-02T14:07:28;11.13;87.32
65207;SHT31;58477;48.072;11.970;2024-03-02T14:09:54;10.99;88.22
65207;SHT31;58477;48.072;11.970;2024-03-02T14:12:19;10.91;87.98
65207;SHT31;58477;48.072;11.970;2024-03-02T14:14:45;10.96;87.83
65207;SHT31;58477;48.072;11.970;2024-03-02T14:17:10;11.02;87.70
65207;SHT31;58477;48.072;11.970;2024-03-02T14:19:40;11.07;87.13
65207;SHT31;58477;48.072;11.970;2024-03-02T14:22:05;11.23;87.21
65207;SHT31;58477;48.072;11.970;2024-03-02T14:24:30;11.06;87.56
65207;SHT31;58477;48.072;11.970;2024-03-02T14:26:56;11.23;87.46
65207;SHT31;58477;48.072;11.970;2024-03-02T14:29:27;11.23;86.67
65207;SHT31;58477;48.072;11.970;2024-03-02T14:51:21;11.20;86.50
65207;SHT31;58477;48.072;11.970;2024-03-02T14:53:47;11.22;86.65
65207;SHT31;58477;48.072;11.970;2024-03-02T14:56:12;11.26;86.91
65207;SHT31;58477;48.072;11.970;2024-03-02T14:58:40;11.20;87.39
65207;SHT31;58477;48.072;11.970;2024-03-02T15:01:06;11.22;87.59
65207;SHT31;58477;48.072;11.970;2024-03-02T15:03:32;11.26;87.87
65207;SHT31;58477;48.072;11.970;2024-03-02T15:05:58;11.20;87.99
65207;SHT31;58477;48.072;11.970;2024-03-02T15:08:23;11.10;87.68
65207;SHT31;58477;48.072;11.970;2024-03-02T15:10:49;11.12;88.09
65207;SHT31;58477;48.072;11.970;2024-03-02T15:13:14;11.16;87.86
65207;SHT31;58477;48.072;11.970;2024-03-02T15:15:40;11.27;87.70
65207;SHT31;58477;48.072;11.970;2024-03-02T15:18:06;11.24;87.57
65207;SHT31;58477;48.072;11.970;2024-03-02T15:20:33;11.12;87.91
65207;SHT31;58477;48.072;11.970;2024-03-02T15:22:58;11.06;88.65
65207;SHT31;58477;48.072;11.970;2024-03-02T15:25:24;10.99;89.00
65207;SHT31;58477;48.072;11.970;2024-03-02T15:27:49;10.96;89.08
65207;SHT31;58477;48.072;11.970;2024-03-02T15:30:15;11.05;88.53
65207;SHT31;58477;48.072;11.970;2024-03-02T15:32:41;10.79;88.67
65207;SHT31;58477;48.072;11.970;2024-03-02T15:35:07;10.79;88.84
65207;SHT31;58477;48.072;11.970;2024-03-02T15:37:32;10.79;88.80
65207;SHT31;58477;48.072;11.970;2024-03-02T15:39:58;10.62;89.06
65207;SHT31;58477;48.072;11.970;2024-03-02T15:42:32;10.62;89.23
65207;SHT31;58477;48.072;11.970;2024-03-02T15:44:57;10.37;89.89
65207;SHT31;58477;48.072;11.970;2024-03-02T15:47:22;10.41;89.83
65207;SHT31;58477;48.072;11.970;2024-03-02T15:49:48;10.39;90.02
65207;SHT31;58477;48.072;11.970;2024-03-02T15:52:14;10.38;89.97
65207;SHT31;58477;48.072;11.970;2024-03-02T15:54:43;10.29;90.40